Time;durP1;ratioP1;P1;durP2;ratioP2;P2;SDS_P1;SDS_P2;PMS_P1;PMS_P2;Temp;Humidity;BMP_temperature;BMP_pressure;BME280_temperature;BME280_humidity;BME280_pressure;Samples;Min_cycle;Max_cycle;Signal;HPM_P1;HPM_P2
2021/11/22 13:23:10;;;;;;;27.55;16.10;;;;;;;;;;804389;24;20368;-88
2021/11/22 13:25:37;;;;;;;28.95;15.30;;;;;;;;;;4764857;30;20562;-84
2021/11/22 13:28:11;;;;;;;27.75;15.68;;;;;;;;;;4769473;30;20027;-85
2021/11/22 13:30:38;;;;;;;29.48;17.42;;;;;;;;;;4752435;30;20039;-85
2021/11/22 13:33:05;;;;;;;26.10;14.70;;;;;;;;;;4745211;30;20032;-83
2021/11/22 13:35:31;;;;;;;25.42;15.35;;;;;;;;;;4754110;30;20025;-84
2021/11/22 13:38:08;;;;;;;30.48;17.05;;;;;;;;;;4750634;30;20125;-83
2021/11/22 13:40:34;;;;;;;27.27;16.23;;;;;;;;;;4752461;30;20466;-83
2021/11/22 13:43:09;;;;;;;35.58;17.35;;;;;;;;;;4760950;30;20028;-85
2021/11/22 13:45:36;;;;;;;27.63;15.48;;;;;;;;;;4731225;30;20071;-84
2021/11/22 13:48:02;;;;;;;29.65;16.48;;;;;;;;;;4717694;30;20040;-84
2021/11/22 13:50:42;;;;;;;28.42;16.02;;;;;;;;;;4726113;30;20040;-86
2021/11/22 13:53:09;;;;;;;29.90;16.95;;;;;;;;;;4736688;30;20128;-87
2021/11/22 13:55:35;;;;;;;27.77;16.65;;;;;;;;;;4754508;30;20119;-86
2021/11/22 13:58:19;;;;;;;26.85;16.23;;;;;;;;;;4738380;30;20032;-85
2021/11/22 14:00:53;;;;;;;28.17;16.50;;;;;;;;;;4755172;30;20128;-85
2021/11/22 14:03:19;;;;;;;30.27;16.83;;;;;;;;;;4755194;30;20067;-86
2021/11/22 14:05:45;;;;;;;26.15;15.70;;;;;;;;;;4751680;30;20043;-85
2021/11/22 14:08:13;;;;;;;28.55;16.88;;;;;;;;;;4774024;30;20608;-84
2021/11/22 14:10:40;;;;;;;29.33;17.15;;;;;;;;;;4773041;30;20578;-85
2021/11/22 14:13:11;;;;;;;26.65;15.13;;;;;;;;;;4771578;30;20028;-85
2021/11/22 14:15:38;;;;;;;26.98;16.98;;;;;;;;;;4755682;30;20499;-85
2021/11/22 14:18:10;;;;;;;28.42;16.40;;;;;;;;;;4739404;30;20040;-83
2021/11/22 14:20:48;;;;;;;27.33;16.13;;;;;;;;;;4756185;30;20027;-86
2021/11/22 14:23:15;;;;;;;26.75;14.52;;;;;;;;;;4749377;30;20035;-82
2021/11/22 14:25:41;;;;;;;28.15;14.88;;;;;;;;;;4775617;30;20021;-83
2021/11/22 14:28:12;;;;;;;30.02;16.67;;;;;;;;;;4750562;30;20036;-84
2021/11/22 14:30:39;;;;;;;26.95;17.08;;;;;;;;;;4741168;30;20039;-85
2021/11/22 14:33:05;;;;;;;27.05;15.82;;;;;;;;;;4742584;30;20032;-84
2021/11/22 14:35:33;;;;;;;28.05;16.60;;;;;;;;;;4756361;30;20099;-85
2021/11/22 14:38:20;;;;;;;29.48;15.25;;;;;;;;;;4742840;30;20161;-83
2021/11/22 14:40:48;;;;;;;24.77;14.15;;;;;;;;;;4761430;30;20407;-84
2021/11/22 14:43:15;;;;;;;28.33;16.30;;;;;;;;;;4756246;30;20064;-85
2021/11/22 14:45:42;;;;;;;28.77;16.05;;;;;;;;;;4755903;30;20059;-84
2021/11/22 14:48:26;;;;;;;26.85;16.27;;;;;;;;;;4743890;30;20040;-84
2021/11/22 14:50:59;;;;;;;29.55;15.77;;;;;;;;;;4743433;30;20028;-83
2021/11/22 14:53:25;;;;;;;31.42;16.92;;;;;;;;;;4760264;30;20094;-85
2021/11/22 14:56:10;;;;;;;28.92;17.60;;;;;;;;;;4760901;30;20032;-83
2021/11/22 14:58:43;;;;;;;31.83;18.63;;;;;;;;;;4762436;30;20040;-82
2021/11/22 15:01:17;;;;;;;30.92;18.08;;;;;;;;;;4745598;30;20040;-84
2021/11/22 15:03:43;;;;;;;30.52;17.13;;;;;;;;;;4763075;30;20114;-84
2021/11/22 15:06:42;;;;;;;29.45;17.33;;;;;;;;;;4761303;30;20043;-85
2021/11/22 15:09:10;;;;;;;32.50;18.25;;;;;;;;;;4687559;30;20125;-83
2021/11/22 15:11:50;;;;;;;35.72;19.45;;;;;;;;;;4693893;30;20052;-85
2021/11/22 15:14:18;;;;;;;32.35;18.55;;;;;;;;;;4692331;30;20102;-84
2021/11/22 15:16:50;;;;;;;33.42;18.88;;;;;;;;;;4692173;30;20046;-85
2021/11/22 15:19:16;;;;;;;31.45;19.58;;;;;;;;;;4692100;30;20045;-85
2021/11/22 15:21:42;;;;;;;29.05;17.90;;;;;;;;;;4692240;30;20042;-83
2021/11/22 15:24:08;;;;;;;37.15;19.73;;;;;;;;;;4685832;30;20153;-83
2021/11/22 15:26:38;;;;;;;30.42;17.88;;;;;;;;;;4695265;30;20038;-83
2021/11/22 15:29:05;;;;;;;35.92;20.42;;;;;;;;;;4685565;30;20038;-82
2021/11/22 15:31:31;;;;;;;34.03;19.88;;;;;;;;;;4681268;30;20132;-84
2021/11/22 15:33:57;;;;;;;32.20;19.23;;;;;;;;;;4680305;30;20490;-81
2021/11/22 15:36:23;;;;;;;35.47;20.13;;;;;;;;;;4673869;30;20065;-82
2021/11/22 15:38:49;;;;;;;32.30;18.40;;;;;;;;;;4667916;30;20151;-83
2021/11/22 15:41:16;;;;;;;33.83;19.60;;;;;;;;;;4673048;30;20116;-84
2021/11/22 15:43:42;;;;;;;34.40;18.98;;;;;;;;;;4686447;30;20033;-84
2021/11/22 15:46:08;;;;;;;31.17;18.23;;;;;;;;;;4742893;30;20071;-85
2021/11/22 15:48:34;;;;;;;30.58;17.90;;;;;;;;;;4759641;30;20039;-84
2021/11/22 15:51:00;;;;;;;30.48;18.17;;;;;;;;;;4757472;30;20035;-85
2021/11/22 15:53:26;;;;;;;32.08;19.25;;;;;;;;;;4744891;30;20039;-85
2021/11/22 15:55:52;;;;;;;31.33;18.35;;;;;;;;;;4757459;30;20035;-85
2021/11/22 15:58:22;;;;;;;34.03;18.13;;;;;;;;;;4740465;30;20043;-85
2021/11/22 16:00:48;;;;;;;33.75;19.45;;;;;;;;;;4739451;30;20028;-84
2021/11/22 16:03:14;;;;;;;32.42;19.45;;;;;;;;;;4758232;30;20047;-82
2021/11/22 16:05:40;;;;;;;32.33;18.75;;;;;;;;;;4767880;30;20071;-85
2021/11/22 16:08:06;;;;;;;29.65;17.17;;;;;;;;;;4748263;30;20039;-85
2021/11/22 16:10:32;;;;;;;32.50;18.58;;;;;;;;;;4745276;30;20028;-83
2021/11/22 16:12:59;;;;;;;29.52;17.23;;;;;;;;;;4742139;30;20440;-83
2021/11/22 16:15:26;;;;;;;27.10;16.52;;;;;;;;;;4740235;30;20123;-82
2021/11/22 16:17:52;;;;;;;26.88;17.05;;;;;;;;;;4755116;30;20024;-84
2021/11/22 16:20:18;;;;;;;30.17;17.08;;;;;;;;;;4754828;30;20104;-85
2021/11/22 16:22:44;;;;;;;27.23;16.38;;;;;;;;;;4763417;30;20107;-84
2021/11/22 16:25:10;;;;;;;29.92;17.67;;;;;;;;;;4769668;30;20051;-85
2021/11/22 16:27:36;;;;;;;27.52;16.58;;;;;;;;;;4776835;30;20032;-85
2021/11/22 16:30:07;;;;;;;33.63;17.73;;;;;;;;;;4756802;30;20028;-85
2021/11/22 16:32:33;;;;;;;29.67;17.38;;;;;;;;;;4753477;30;20131;-85
2021/11/22 16:34:59;;;;;;;34.20;18.83;;;;;;;;;;4755129;30;20032;-84
2021/11/22 16:37:28;;;;;;;31.65;19.48;;;;;;;;;;4753373;30;20032;-83
2021/11/22 16:39:54;;;;;;;30.33;17.83;;;;;;;;;;4752415;30;20514;-85
2021/11/22 16:42:20;;;;;;;32.08;19.55;;;;;;;;;;4753513;30;20129;-84
2021/11/22 16:44:46;;;;;;;29.80;18.15;;;;;;;;;;4756689;30;20666;-84
2021/11/22 16:47:13;;;;;;;30.23;18.40;;;;;;;;;;4762579;30;20032;-84
2021/11/22 16:49:40;;;;;;;32.75;19.25;;;;;;;;;;4761574;30;20036;-84
2021/11/22 16:52:06;;;;;;;31.00;19.67;;;;;;;;;;4761470;30;20036;-83
2021/11/22 16:54:33;;;;;;;34.17;19.50;;;;;;;;;;4753665;30;20094;-84
2021/11/22 16:56:59;;;;;;;30.98;18.02;;;;;;;;;;4759630;30;20499;-83
2021/11/22 16:59:25;;;;;;;31.98;18.75;;;;;;;;;;4753621;30;20032;-83
2021/11/22 17:01:52;;;;;;;30.45;17.73;;;;;;;;;;4735430;30;20033;-84
2021/11/22 17:04:18;;;;;;;33.17;18.88;;;;;;;;;;4738963;30;20504;-84
2021/11/22 17:06:45;;;;;;;31.00;17.88;;;;;;;;;;4753444;30;20036;-84
